Flight Track Log - Related Links

Times and Time Zones

All times are in EDT time to prevent confusion due to time zone crossing. See the FDX1347 flight status page for this flight to view local times or setup timezone preferences in your user account.

Time Position Orientation Groundspeed Altitude Reporting Facility
EDT Latitude Longitude Course Direction KTS MPH feet Rate Location/Type
Fri 09:54:23 PM 42.7236 -73.8081 253° West 157 181 1,600  Level Boston Center
Fri 09:55:35 PM 42.7058 -73.8894 253° West 250 288 4,000 2,340 Climbing Boston Center
Fri 10:01:21 PM 42.6820 -74.5800 253° West 384 442 17,900 2,397 Climbing FlightAware ADS-B
Fri 10:01:33 PM 42.6730 -74.6090 247° West 386 444 18,300 2,118 Climbing FlightAware ADS-B
Fri 10:01:55 PM 42.6480 -74.6520 232° Southwest 396 456 19,100 1,920 Climbing FlightAware ADS-B
Fri 10:02:23 PM 42.6130 -74.6950 222° Southwest 402 463 19,900 1,781 Climbing FlightAware ADS-B
Fri 10:02:59 PM 42.5570 -74.7570 219° Southwest 411 473 21,000 1,886 Climbing FlightAware ADS-B
Fri 10:03:33 PM 42.5070 -74.8140 220° Southwest 415 478 22,100 1,826 Climbing FlightAware ADS-B
Fri 10:04:08 PM 42.4580 -74.8680 219° Southwest 422 486 23,100 1,727 Climbing FlightAware ADS-B
Fri 10:04:39 PM 42.4100 -74.9230 220° Southwest 429 494 24,000 1,808 Climbing FlightAware ADS-B
Fri 10:05:21 PM 42.3440 -75.0000 221° Southwest 435 501 25,300 1,676 Climbing FlightAware ADS-B
Fri 10:05:47 PM 42.3090 -75.0500 227° Southwest 438 504 25,900 1,662 Climbing FlightAware ADS-B
Fri 10:06:26 PM 42.2650 -75.1390 236° Southwest 442 509 27,100 1,605 Climbing FlightAware ADS-B
Fri 10:07:13 PM 42.2150 -75.2500 239° Southwest 458 527 28,200 1,482 Climbing FlightAware ADS-B
Fri 10:07:51 PM 42.1740 -75.3440 240° Southwest 466 536 29,200 1,583 Climbing FlightAware ADS-B
Fri 10:08:25 PM 42.1330 -75.4330 238° Southwest 471 542 30,100 1,808 Climbing FlightAware ADS-B
Fri 10:09:04 PM 42.0900 -75.5250 238° Southwest 469 540 31,400 2,083 Climbing FlightAware ADS-B
Fri 10:09:37 PM 42.0510 -75.6120 239° Southwest 466 536 32,600 2,000 Climbing FlightAware ADS-B
Fri 10:10:13 PM 42.0150 -75.7010 241° Southwest 464 534 33,700 2,118 Climbing FlightAware ADS-B
Fri 10:10:45 PM 41.9820 -75.7820 241° Southwest 457 526 35,000 2,471 Climbing FlightAware ADS-B
Fri 10:11:21 PM 41.9460 -75.8700 241° Southwest 443 510 36,500 2,027 Climbing FlightAware ADS-B
Fri 10:11:59 PM 41.9090 -75.9600 241° Southwest 441 507 37,500 1,286 Climbing FlightAware ADS-B
Fri 10:12:31 PM 41.8760 -76.0400 241° Southwest 446 513 38,000 1,029 Climbing FlightAware ADS-B
Fri 10:13:09 PM 41.8380 -76.1320 241° Southwest 447 514 38,700 1,541 Climbing FlightAware ADS-B
Fri 10:13:45 PM 41.8030 -76.2150 241° Southwest 431 496 39,900 1,235 Climbing FlightAware ADS-B
Fri 10:14:17 PM 41.7720 -76.2880 240° Southwest 423 487 40,100 188 Climbing FlightAware ADS-B
Fri 10:14:49 PM 41.7430 -76.3570 241° Southwest 424 488 40,100  Level FlightAware ADS-B
Fri 10:15:24 PM 41.7130 -76.4280 241° Southwest 428 493 40,100  Level FlightAware ADS-B
Fri 10:16:01 PM 41.6720 -76.5260 241° Southwest 431 496 40,100  Level FlightAware ADS-B
Fri 10:16:35 PM 41.6400 -76.6020 241° Southwest 433 498 40,100  Level FlightAware ADS-B
Fri 10:17:13 PM 41.6000 -76.6960 240° Southwest 435 501 40,100  Level FlightAware ADS-B
Fri 10:17:50 PM 41.5630 -76.7820 240° Southwest 436 502 40,100  Level FlightAware ADS-B
Fri 10:18:34 PM 41.5220 -76.8780 240° Southwest 437 503 40,100  Level FlightAware ADS-B
Fri 10:19:09 PM 41.4870 -76.9600 240° Southwest 439 505 40,100  Level FlightAware ADS-B
Fri 10:19:44 PM 41.4520 -77.0420 240° Southwest 439 505 40,100  Level FlightAware ADS-B
Fri 10:20:19 PM 41.4160 -77.1270 241° Southwest 439 505 40,100  Level FlightAware ADS-B
Fri 10:20:59 PM 41.3770 -77.2160 240° Southwest 438 504 40,100  Level FlightAware ADS-B
Fri 10:21:34 PM 41.3410 -77.3000 240° Southwest 438 504 40,100  Level FlightAware ADS-B
Fri 10:22:04 PM 41.3100 -77.3720 240° Southwest 438 504 40,100  Level FlightAware ADS-B
Fri 10:22:39 PM 41.2730 -77.4560 240° Southwest 437 503 40,100  Level FlightAware ADS-B
Fri 10:23:14 PM 41.2370 -77.5390 240° Southwest 436 502 40,100  Level FlightAware ADS-B
Fri 10:23:49 PM 41.2030 -77.6160 240° Southwest 436 502 40,100  Level FlightAware ADS-B
Fri 10:24:29 PM 41.1600 -77.7120 239° Southwest 434 499 40,100  Level FlightAware ADS-B
Fri 10:25:00 PM 41.1300 -77.7820 240° Southwest 433 498 40,100  Level FlightAware ADS-B
Fri 10:25:45 PM 41.0880 -77.8780 240° Southwest 432 497 40,100  Level FlightAware ADS-B
Fri 10:26:19 PM 41.0510 -77.9600 239° Southwest 432 497 40,100  Level FlightAware ADS-B
Fri 10:26:49 PM 41.0210 -78.0300 240° Southwest 431 496 40,100  Level FlightAware ADS-B
Fri 10:27:34 PM 40.9780 -78.1260 239° Southwest 431 496 40,100  Level FlightAware ADS-B
Fri 10:28:19 PM 40.9330 -78.2260 239° Southwest 431 496 40,100  Level FlightAware ADS-B
Fri 10:28:49 PM 40.9000 -78.3010 240° Southwest 431 496 40,100  Level FlightAware ADS-B
Fri 10:29:34 PM 40.8550 -78.4000 239° Southwest 430 495 40,100  Level FlightAware ADS-B
Fri 10:30:14 PM 40.8160 -78.4880 240° Southwest 429 494 40,100  Level FlightAware ADS-B
Fri 10:30:49 PM 40.7790 -78.5690 239° Southwest 428 493 40,100  Level FlightAware ADS-B
Fri 10:31:24 PM 40.7420 -78.6490 239° Southwest 427 491 40,100  Level FlightAware ADS-B
Fri 10:31:59 PM 40.7070 -78.7270 239° Southwest 427 491 40,100  Level FlightAware ADS-B
Fri 10:32:44 PM 40.6640 -78.8230 239° Southwest 427 491 40,100  Level FlightAware ADS-B
Fri 10:33:19 PM 40.6280 -78.9010 239° Southwest 426 490 40,100  Level FlightAware ADS-B
Fri 10:33:49 PM 40.5930 -78.9770 239° Southwest 427 491 40,100  Level FlightAware ADS-B
Fri 10:34:29 PM 40.5530 -79.0660 239° Southwest 427 491 40,100  Level FlightAware ADS-B
Fri 10:35:04 PM 40.5170 -79.1430 238° Southwest 427 491 40,100  Level FlightAware ADS-B
Fri 10:35:34 PM 40.4860 -79.2100 239° Southwest 427 491 40,100  Level FlightAware ADS-B
Fri 10:36:21 PM 40.4410 -79.3080 239° Southwest 428 493 40,100  Level FlightAware ADS-B
Fri 10:36:54 PM 40.4060 -79.3830 239° Southwest 428 493 40,100  Level FlightAware ADS-B
Fri 10:37:29 PM 40.3680 -79.4650 239° Southwest 429 494 40,100  Level FlightAware ADS-B
Fri 10:38:04 PM 40.3330 -79.5410 239° Southwest 430 495 40,100  Level FlightAware ADS-B
Fri 10:38:39 PM 40.2960 -79.6190 238° Southwest 431 496 40,100  Level FlightAware ADS-B
Fri 10:39:14 PM 40.2580 -79.6990 238° Southwest 432 497 40,100  Level FlightAware ADS-B
Fri 10:39:49 PM 40.2220 -79.7770 239° Southwest 432 497 40,100  Level FlightAware ADS-B
Fri 10:40:25 PM 40.1850 -79.8550 238° Southwest 433 498 40,100  Level FlightAware ADS-B
Fri 10:41:00 PM 40.1480 -79.9330 238° Southwest 435 501 40,100  Level FlightAware ADS-B
Fri 10:41:34 PM 40.1140 -80.0070 239° Southwest 436 502 40,100  Level FlightAware ADS-B
Fri 10:42:09 PM 40.0740 -80.0900 238° Southwest 437 503 40,100  Level FlightAware ADS-B
Fri 10:42:41 PM 40.0420 -80.1570 238° Southwest 437 503 40,100  Level FlightAware ADS-B
Fri 10:43:19 PM 40.0000 -80.2450 238° Southwest 437 503 40,100  Level FlightAware ADS-B
Fri 10:43:54 PM 39.9620 -80.3250 238° Southwest 439 505 40,100  Level FlightAware ADS-B
Fri 10:44:29 PM 39.9260 -80.3990 238° Southwest 439 505 40,100  Level FlightAware ADS-B
Fri 10:45:12 PM 39.8870 -80.4830 239° Southwest 439 505 40,100  Level FlightAware ADS-B
Fri 10:45:55 PM 39.8310 -80.5970 237° Southwest 440 506 40,100  Level FlightAware ADS-B
Fri 10:46:28 PM 39.7960 -80.6690 238° Southwest 440 506 40,100  Level FlightAware ADS-B
Fri 10:47:26 PM 39.7460 -80.7720 238° Southwest 440 506 40,100  Level FlightAware ADS-B
Fri 10:48:01 PM 39.7060 -80.8550 238° Southwest 441 507 40,100  Level FlightAware ADS-B
Fri 10:48:36 PM 39.6560 -80.9580 238° Southwest 443 510 40,100  Level FlightAware ADS-B
Fri 10:49:14 PM 39.6140 -81.0430 237° Southwest 444 511 40,100  Level FlightAware ADS-B
Fri 10:49:46 PM 39.5800 -81.1130 238° Southwest 446 513 40,100  Level FlightAware ADS-B
Fri 10:50:20 PM 39.5410 -81.1920 237° Southwest 446 513 40,100  Level FlightAware ADS-B
Fri 10:50:58 PM 39.4990 -81.2770 237° Southwest 445 512 40,100  Level FlightAware ADS-B
Fri 10:51:30 PM 39.4630 -81.3490 237° Southwest 445 512 40,100  Level FlightAware ADS-B
Fri 10:52:07 PM 39.4220 -81.4340 238° Southwest 444 511 40,100  Level FlightAware ADS-B
Fri 10:52:43 PM 39.3820 -81.5130 237° Southwest 444 511 40,100  Level FlightAware ADS-B
Fri 10:53:17 PM 39.3610 -81.5550 237° Southwest 444 511 40,100  Level FlightAware ADS-B
Fri 10:53:47 PM 39.3230 -81.6310 237° Southwest 443 510 40,100  Level FlightAware ADS-B
Fri 10:54:33 PM 39.2600 -81.7580 237° Southwest 444 511 40,100  Level FlightAware ADS-B
Fri 10:55:11 PM 39.2170 -81.8420 237° Southwest 446 513 40,100  Level FlightAware ADS-B
Fri 10:55:45 PM 39.1790 -81.9180 237° Southwest 446 513 40,100  Level FlightAware ADS-B
Fri 10:56:15 PM 39.1450 -81.9870 238° Southwest 446 513 40,100  Level FlightAware ADS-B
Fri 10:56:55 PM 39.1000 -82.0740 236° Southwest 446 513 40,100  Level FlightAware ADS-B
Fri 10:57:27 PM 39.0640 -82.1480 238° Southwest 447 514 40,100  Level FlightAware ADS-B
Fri 10:58:05 PM 39.0210 -82.2320 237° Southwest 447 514 40,100  Level FlightAware ADS-B
Fri 10:58:41 PM 38.9800 -82.3130 237° Southwest 447 514 40,100  Level FlightAware ADS-B
Fri 10:59:12 PM 38.9450 -82.3790 236° Southwest 447 514 40,100  Level FlightAware ADS-B
Fri 10:59:50 PM 38.9020 -82.4640 237° Southwest 447 514 40,100  Level FlightAware ADS-B
Fri 11:00:26 PM 38.8620 -82.5430 237° Southwest 447 514 40,100  Level FlightAware ADS-B
Fri 11:00:57 PM 38.8260 -82.6120 236° Southwest 447 514 40,100  Level FlightAware ADS-B
Fri 11:01:34 PM 38.7840 -82.6940 237° Southwest 449 517 40,100  Level FlightAware ADS-B
Fri 11:02:05 PM 38.7470 -82.7650 236° Southwest 449 517 40,100  Level FlightAware ADS-B
Fri 11:02:42 PM 38.7070 -82.8430 237° Southwest 449 517 40,100  Level FlightAware ADS-B
Fri 11:03:18 PM 38.6660 -82.9220 236° Southwest 448 516 40,100  Level FlightAware ADS-B
Fri 11:03:51 PM 38.6260 -83.0000 237° Southwest 448 516 40,100  Level FlightAware ADS-B
Fri 11:04:27 PM 38.5860 -83.0750 236° Southwest 450 518 40,100  Level FlightAware ADS-B
Fri 11:05:01 PM 38.5460 -83.1520 236° Southwest 449 517 40,100  Level FlightAware ADS-B
Fri 11:05:40 PM 38.4998 -83.2402 236° Southwest 451 519 40,100  Level FlightAware ADS-B
Fri 11:06:41 PM 38.4292 -83.3751 236° Southwest 451 519 40,100  Level FlightAware ADS-B
Fri 11:07:27 PM 38.3757 -83.4767 236° Southwest 453 521 40,100  Level FlightAware ADS-B
Fri 11:08:00 PM 38.3370 -83.5500 236° Southwest 453 521 40,100  Level FlightAware ADS-B
Fri 11:08:36 PM 38.2950 -83.6270 235° Southwest 453 521 40,100  Level FlightAware ADS-B
Fri 11:09:06 PM 38.2600 -83.6930 236° Southwest 453 521 40,100  Level FlightAware ADS-B
Fri 11:09:44 PM 38.2160 -83.7770 236° Southwest 453 521 40,100  Level FlightAware ADS-B
Fri 11:10:21 PM 38.1730 -83.8590 236° Southwest 454 522 40,100  Level FlightAware ADS-B
Fri 11:10:54 PM 38.1320 -83.9340 235° Southwest 454 522 40,100  Level FlightAware ADS-B
Fri 11:11:22 PM 38.1010 -83.9920 236° Southwest 455 524 40,100  Level FlightAware ADS-B
Fri 11:11:58 PM 38.0570 -84.0730 235° Southwest 457 526 40,100  Level FlightAware ADS-B
Fri 11:12:34 PM 38.0140 -84.1550 236° Southwest 457 526 40,100  Level FlightAware ADS-B
Fri 11:13:04 PM 37.9776 -84.2217 235° Southwest 458 527 40,100  Level FlightAware ADS-B
Fri 11:13:40 PM 37.9341 -84.3015 235° Southwest 459 528 40,100  Level FlightAware ADS-B
Fri 11:14:11 PM 37.8975 -84.3680 235° Southwest 460 529 40,100  Level FlightAware ADS-B
Fri 11:14:41 PM 37.8606 -84.4366 236° Southwest 460 529 40,100  Level FlightAware ADS-B
Fri 11:15:12 PM 37.8236 -84.5054 236° Southwest 461 531 40,100  Level FlightAware ADS-B
Fri 11:15:42 PM 37.7868 -84.5720 235° Southwest 462 532 40,100  Level FlightAware ADS-B
Fri 11:16:13 PM 37.7499 -84.6386 235° Southwest 462 532 40,100  Level FlightAware ADS-B
Fri 11:16:47 PM 37.7086 -84.7140 235° Southwest 462 532 40,100  Level FlightAware ADS-B
Fri 11:17:24 PM 37.6632 -84.7982 236° Southwest 463 533 40,100  Level FlightAware ADS-B
Fri 11:17:55 PM 37.6251 -84.8671 235° Southwest 464 534 40,100  Level FlightAware ADS-B
Fri 11:18:37 PM 37.5737 -84.9606 235° Southwest 465 535 40,100  Level FlightAware ADS-B
Fri 11:19:07 PM 37.5365 -85.0273 235° Southwest 465 535 40,100  Level FlightAware ADS-B
Fri 11:19:40 PM 37.4960 -85.1010 235° Southwest 465 535 40,100  Level FlightAware ADS-B
Fri 11:20:00 PM 37.4710 -85.1449 234° Southwest 465 535 40,100  Level FlightAware ADS-B
Fri 11:20:31 PM 37.4331 -85.2138 235° Southwest 466 536 40,100  Level FlightAware ADS-B
Fri 11:21:01 PM 37.3957 -85.2802 235° Southwest 465 535 40,100  Level FlightAware ADS-B
Fri 11:21:31 PM 37.3585 -85.3465 235° Southwest 465 535 40,100  Level FlightAware ADS-B
Fri 11:22:02 PM 37.3220 -85.4130 235° Southwest 463 533 40,100  Level FlightAware ADS-B
Fri 11:22:10 PM 37.3104 -85.4326 233° Southwest 464 534 40,100  Level FlightAware ADS-B
Fri 11:23:13 PM 37.2329 -85.5711 235° Southwest 464 534 40,100  Level FlightAware ADS-B
Fri 11:23:48 PM 37.1890 -85.6480 234° Southwest 462 532 40,100  Level FlightAware ADS-B
Fri 11:24:09 PM 37.1633 -85.6937 235° Southwest 464 534 40,100  Level FlightAware ADS-B
Fri 11:24:57 PM 37.1040 -85.7990 235° Southwest 463 533 40,100  Level FlightAware ADS-B
Fri 11:25:27 PM 37.0670 -85.8640 235° Southwest 464 534 40,100  Level FlightAware ADS-B
Fri 11:25:58 PM 37.0288 -85.9299 234° Southwest 465 535 40,100  Level FlightAware ADS-B
Fri 11:26:29 PM 36.9892 -86.0001 235° Southwest 466 536 40,100  Level FlightAware ADS-B
Fri 11:27:01 PM 36.9499 -86.0681 234° Southwest 468 539 40,100  Level FlightAware ADS-B
Fri 11:27:31 PM 36.9119 -86.1363 235° Southwest 468 539 40,100  Level FlightAware ADS-B
Fri 11:28:02 PM 36.8726 -86.2046 234° Southwest 470 541 40,100  Level FlightAware ADS-B
Fri 11:28:32 PM 36.8341 -86.2705 234° Southwest 470 541 40,100  Level FlightAware ADS-B
Fri 11:29:04 PM 36.7938 -86.3410 234° Southwest 470 541 40,100  Level FlightAware ADS-B
Fri 11:29:35 PM 36.7543 -86.4093 234° Southwest 470 541 40,100  Level FlightAware ADS-B
Fri 11:30:17 PM 36.7010 -86.5020 234° Southwest 470 541 40,100  Level FlightAware ADS-B
Fri 11:30:53 PM 36.6560 -86.5810 235° Southwest 470 541 40,100  Level FlightAware ADS-B
Fri 11:31:26 PM 36.6140 -86.6510 233° Southwest 472 543 40,100  Level FlightAware ADS-B
Fri 11:32:02 PM 36.5680 -86.7300 234° Southwest 472 543 40,100  Level FlightAware ADS-B
Fri 11:32:38 PM 36.5220 -86.8090 234° Southwest 472 543 40,100  Level FlightAware ADS-B
Fri 11:33:12 PM 36.4780 -86.8840 234° Southwest 472 543 40,100  Level FlightAware ADS-B
Fri 11:33:49 PM 36.4300 -86.9670 234° Southwest 471 542 40,100  Level FlightAware ADS-B
Fri 11:34:21 PM 36.3890 -87.0370 234° Southwest 472 543 40,100  Level FlightAware ADS-B
Fri 11:34:51 PM 36.3500 -87.1030 234° Southwest 472 543 40,100  Level FlightAware ADS-B
Fri 11:35:27 PM 36.3050 -87.1790 234° Southwest 471 542 40,100  Level FlightAware ADS-B
Fri 11:35:59 PM 36.2630 -87.2490 233° Southwest 472 543 40,100  Level FlightAware ADS-B
Fri 11:36:37 PM 36.2160 -87.3300 234° Southwest 472 543 40,100  Level FlightAware ADS-B
Fri 11:37:13 PM 36.1690 -87.4080 233° Southwest 472 543 40,100  Level FlightAware ADS-B
Fri 11:37:43 PM 36.1310 -87.4710 233° Southwest 472 543 40,100  Level FlightAware ADS-B
Fri 11:38:21 PM 36.0790 -87.5580 234° Southwest 472 543 40,100  Level FlightAware ADS-B
Fri 11:38:57 PM 36.0330 -87.6360 234° Southwest 473 544 40,100 -405 Level FlightAware ADS-B
Fri 11:39:35 PM 35.9830 -87.7190 233° Southwest 475 547 39,600 -1,579 Descending FlightAware ADS-B
Fri 11:40:13 PM 35.9330 -87.8020 233° Southwest 479 551 38,100 -2,417 Descending FlightAware ADS-B
Fri 11:40:47 PM 35.8880 -87.8770 233° Southwest 481 554 36,700 -2,637 Descending FlightAware ADS-B
Fri 11:41:44 PM 35.8130 -88.0020 234° Southwest 474 545 34,100 -1,680 Descending FlightAware ADS-B
Fri 11:42:27 PM 35.7630 -88.0820 232° Southwest 473 544 33,900 -156 Descending FlightAware ADS-B
Fri 11:43:01 PM 35.7250 -88.1440 233° Southwest 473 544 33,900  Level FlightAware ADS-B
Fri 11:43:37 PM 35.6850 -88.2100 233° Southwest 473 544 33,900  Level FlightAware ADS-B
Fri 11:44:13 PM 35.6450 -88.2760 233° Southwest 473 544 33,900  Level FlightAware ADS-B
Fri 11:44:49 PM 35.6040 -88.3420 233° Southwest 473 544 33,900  Level FlightAware ADS-B
Fri 11:45:26 PM 35.5630 -88.4090 233° Southwest 473 544 33,900  Level FlightAware ADS-B
Fri 11:46:02 PM 35.5230 -88.4750 233° Southwest 473 544 33,900  Level FlightAware ADS-B
Fri 11:46:40 PM 35.4800 -88.5440 233° Southwest 473 544 33,900  Level FlightAware ADS-B
Fri 11:47:16 PM 35.4400 -88.6100 233° Southwest 473 544 33,900  Level FlightAware ADS-B
Fri 11:47:54 PM 35.3970 -88.6790 233° Southwest 473 544 33,900  Level FlightAware ADS-B
Fri 11:48:31 PM 35.3560 -88.7470 234° Southwest 473 544 33,900  Level FlightAware ADS-B
Fri 11:49:06 PM 35.3170 -88.8100 233° Southwest 473 544 33,900  Level FlightAware ADS-B
Fri 11:49:43 PM 35.2750 -88.8780 233° Southwest 473 544 33,900  Level FlightAware ADS-B
Fri 11:50:20 PM 35.2340 -88.9450 233° Southwest 473 544 33,900  Level FlightAware ADS-B
Fri 11:50:56 PM 35.1930 -89.0100 232° Southwest 473 544 33,900  Level FlightAware ADS-B
Fri 11:51:33 PM 35.1520 -89.0780 234° Southwest 473 544 33,900 -13,886 Level FlightAware ADS-B
Fri 11:52:41 PM 35.0344 -89.1219 234° Southwest 293 337 9,600 -12,141 Descending Memphis Center
Fri 11:53:41 PM 35.0375 -89.2183 272° West 288 331 8,000 -1,600 Descending Memphis Center
Fri 11:54:41 PM 35.0383 -89.3147 271° West 288 331 6,400 -1,450 Descending Memphis Center
Fri 11:55:41 PM 35.0411 -89.4086 272° West 282 325 5,100 -1,200 Descending Memphis Center
Fri 11:56:41 PM 35.0461 -89.4997 274° West 269 310 4,000 -550 Descending Memphis Center
Fri 11:57:41 PM 35.0486 -89.5886 272° West 269 310 4,000 -400 Level Memphis Center
Fri 11:58:41 PM 35.0514 -89.6797 272° West 269 310 3,200 -500 Descending Memphis Center
Fri 11:59:41 PM 35.0539 -89.7611 272° West 257 296 3,000 -450 Descending Memphis Center
Sat 12:00:41 AM 35.0564 -89.8369 272° West 224 258 2,300 -800 Descending Memphis Center
Sat 12:01:41 AM 35.0564 -89.8903 270° West 182 209 1,400 -750 Descending Memphis Center
Sat 12:02:41 AM 35.0589 -89.9333 274° West 148 170 800 -450 Descending Memphis Center
Sat 12:03:41 AM 35.0589 -89.9767 270° West 128 147 500 17,100 Descending Memphis Center
Sat 12:04:41 AM 35.0589 -90.0197 270° West 128 147 35,000 34,500 Climbing Memphis Center

Login

Don't have an account? Register now (free) for customized features, flight alerts, and more!